Time;durP1;ratioP1;P1;durP2;ratioP2;P2;SDS_P1;SDS_P2;PMS_P1;PMS_P2;Temp;Humidity;BMP_temperature;BMP_pressure;BME280_temperature;BME280_humidity;BME280_pressure;Samples;Min_cycle;Max_cycle;Signal;HPM_P1;HPM_P2
2021/11/07 00:07:20;;;;;;;9.50;5.18;;;11.60;56.00;;;;;;6183599;28;20503;-74
2021/11/07 00:13:50;;;;;;;10.55;4.72;;;11.40;56.30;;;;;;6148865;29;20461;-74
2021/11/07 00:16:52;;;;;;;8.95;4.32;;;11.30;56.40;;;;;;6131292;29;20027;-73
2021/11/07 00:19:58;;;;;;;10.02;4.50;;;11.30;56.50;;;;;;6145737;29;20066;-73
2021/11/07 00:29:29;;;;;;;9.93;4.78;;;11.00;56.50;;;;;;6145171;28;20158;-75
2021/11/07 00:32:45;;;;;;;8.27;4.47;;;11.00;56.50;;;;;;6133910;29;20464;-74
2021/11/07 00:38:55;;;;;;;11.43;4.72;;;10.90;56.60;;;;;;6149512;29;20444;-75
2021/11/07 00:42:09;;;;;;;8.52;4.28;;;10.90;56.70;;;;;;6147702;29;20038;-74
2021/11/07 00:57:57;;;;;;;12.18;6.38;;;11.10;56.70;;;;;;6197016;28;20034;-73
2021/11/07 01:01:04;;;;;;;11.25;5.80;;;11.10;56.70;;;;;;6180107;28;20034;-73
2021/11/07 01:04:06;;;;;;;9.77;5.97;;;11.20;56.80;;;;;;6197018;28;20026;-73
2021/11/07 01:07:07;;;;;;;11.23;6.03;;;11.20;56.80;;;;;;6195753;28;20080;-73
2021/11/07 01:10:09;;;;;;;13.52;5.68;;;11.20;56.80;;;;;;6199164;28;20038;-74
2021/11/07 01:13:10;;;;;;;13.15;5.90;;;11.20;56.90;;;;;;6197205;28;20410;-73
2021/11/07 01:16:13;;;;;;;14.15;5.72;;;11.20;56.90;;;;;;6197154;28;20023;-73
2021/11/07 01:19:14;;;;;;;12.30;5.25;;;11.30;56.90;;;;;;6197136;28;20050;-75
2021/11/07 01:22:20;;;;;;;10.95;6.00;;;11.30;57.50;;;;;;6213618;28;20029;-73
2021/11/07 01:25:21;;;;;;;12.27;6.25;;;11.40;56.80;;;;;;6193357;28;20030;-74
2021/11/07 01:28:24;;;;;;;11.43;5.70;;;11.40;56.80;;;;;;6197396;28;20034;-74
2021/11/07 01:31:25;;;;;;;11.98;5.80;;;11.30;56.70;;;;;;6195234;28;20053;-73
2021/11/07 01:37:42;;;;;;;9.63;5.22;;;11.20;56.80;;;;;;6196071;28;20109;-74
2021/11/07 01:40:57;;;;;;;15.93;5.53;;;11.10;56.80;;;;;;6195639;28;20324;-75
2021/11/07 01:43:59;;;;;;;11.80;5.75;;;11.00;57.00;;;;;;6198040;28;20030;-75
2021/11/07 01:47:00;;;;;;;10.50;5.72;;;10.90;57.10;;;;;;6194271;28;20030;-74
2021/11/07 01:50:01;;;;;;;9.65;5.30;;;10.90;57.40;;;;;;6195152;28;20033;-74
2021/11/07 01:53:08;;;;;;;13.18;6.32;;;10.80;57.30;;;;;;6195768;28;20432;-74
2021/11/07 01:56:14;;;;;;;13.27;6.30;;;10.80;57.40;;;;;;6197946;28;20022;-75
2021/11/07 01:59:15;;;;;;;14.23;6.13;;;10.80;57.60;;;;;;6196907;28;20022;-74
2021/11/07 02:02:17;;;;;;;14.93;6.78;;;10.70;57.60;;;;;;6200231;28;20344;-73
2021/11/07 02:05:18;;;;;;;13.18;6.40;;;10.70;57.70;;;;;;6202445;28;20030;-73
2021/11/07 02:08:21;;;;;;;10.15;5.47;;;10.70;57.70;;;;;;6201789;28;20056;-74
2021/11/07 02:11:22;;;;;;;10.45;5.60;;;10.70;57.80;;;;;;6200068;28;20089;-73
2021/11/07 02:14:23;;;;;;;12.15;5.55;;;10.70;57.80;;;;;;6198616;28;20033;-73
2021/11/07 02:17:24;;;;;;;14.80;6.07;;;10.70;57.70;;;;;;6197616;28;20337;-74
2021/11/07 02:20:48;;;;;;;16.73;6.55;;;10.80;57.80;;;;;;6184012;28;20029;-73
2021/11/07 02:23:49;;;;;;;10.45;5.78;;;10.70;57.70;;;;;;6202432;28;20034;-74
2021/11/07 02:26:54;;;;;;;11.35;6.18;;;10.70;57.70;;;;;;6212686;28;20049;-75
2021/11/07 02:29:55;;;;;;;12.43;5.78;;;10.80;57.60;;;;;;6199338;28;20034;-75
2021/11/07 02:32:58;;;;;;;17.17;6.68;;;10.80;57.60;;;;;;6201023;28;20084;-75
2021/11/07 02:36:09;;;;;;;12.20;6.55;;;10.80;57.60;;;;;;6196076;28;20062;-72
2021/11/07 02:39:13;;;;;;;12.10;5.75;;;10.80;57.60;;;;;;6215147;28;20042;-73
2021/11/07 02:42:14;;;;;;;10.75;5.80;;;10.80;57.60;;;;;;6200570;28;20329;-73
2021/11/07 02:45:17;;;;;;;9.50;5.03;;;10.80;57.70;;;;;;6183135;28;20444;-73
2021/11/07 02:48:18;;;;;;;13.43;6.30;;;10.80;57.80;;;;;;6200599;28;20456;-73
2021/11/07 02:51:34;;;;;;;16.38;6.43;;;10.80;57.80;;;;;;6199005;28;20109;-73
2021/11/07 02:54:37;;;;;;;11.70;6.30;;;10.70;58.50;;;;;;6212284;28;20092;-75
2021/11/07 02:57:38;;;;;;;13.63;6.45;;;10.80;57.90;;;;;;6201438;28;20463;-74
2021/11/07 03:00:39;;;;;;;11.45;6.38;;;10.80;58.10;;;;;;6200203;28;20027;-73
2021/11/07 03:03:40;;;;;;;16.08;6.55;;;10.90;57.80;;;;;;6196959;28;20027;-73
2021/11/07 03:06:42;;;;;;;13.63;6.20;;;10.90;57.80;;;;;;6180318;28;20294;-73
2021/11/07 03:09:44;;;;;;;18.63;6.85;;;10.90;57.70;;;;;;6200831;28;20023;-73
2021/11/07 03:12:46;;;;;;;13.40;6.65;;;10.90;57.70;;;;;;6198488;28;20046;-74
2021/11/07 03:15:47;;;;;;;13.77;6.15;;;10.90;57.80;;;;;;6198133;28;20089;-74
2021/11/07 03:18:47;;;;;;;14.63;5.88;;;10.90;57.70;;;;;;6197864;28;20034;-74
2021/11/07 03:21:50;;;;;;;10.82;6.18;;;10.90;57.70;;;;;;6198505;28;20422;-73
2021/11/07 03:24:55;;;;;;;10.30;5.82;;;10.90;57.70;;;;;;6199720;28;20022;-73
2021/11/07 03:27:56;;;;;;;14.23;6.03;;;10.90;57.70;;;;;;6199752;28;20395;-73
2021/11/07 03:34:02;;;;;;;7.65;4.68;;;10.90;57.40;;;;;;6199809;28;20097;-73
2021/11/07 03:37:07;;;;;;;11.10;4.93;;;10.90;57.40;;;;;;6197522;28;20033;-74
2021/11/07 03:40:10;;;;;;;9.45;5.00;;;10.90;57.30;;;;;;6200191;28;20043;-73
2021/11/07 03:43:11;;;;;;;10.48;5.45;;;10.90;57.20;;;;;;6197371;28;20026;-73
2021/11/07 03:46:13;;;;;;;10.38;5.18;;;10.90;57.00;;;;;;6212418;28;20053;-74
2021/11/07 03:49:15;;;;;;;10.18;4.47;;;10.90;56.80;;;;;;6198318;28;20022;-73
2021/11/07 03:52:16;;;;;;;15.70;5.18;;;10.90;56.70;;;;;;6200230;28;20444;-73
2021/11/07 03:55:18;;;;;;;14.25;5.75;;;10.90;56.70;;;;;;6180701;28;20053;-73
2021/11/07 03:58:19;;;;;;;12.65;4.97;;;10.90;56.60;;;;;;6198706;28;20026;-72
2021/11/07 04:01:20;;;;;;;14.05;5.38;;;10.90;56.40;;;;;;6199785;28;20110;-73
2021/11/07 04:04:22;;;;;;;9.82;4.53;;;10.80;56.40;;;;;;6198896;28;20026;-73
2021/11/07 04:07:22;;;;;;;10.35;4.93;;;10.90;56.40;;;;;;6198753;28;20478;-74
2021/11/07 04:10:24;;;;;;;16.38;5.00;;;10.80;56.20;;;;;;6182077;28;20027;-73
2021/11/07 04:13:25;;;;;;;12.75;5.07;;;10.80;56.20;;;;;;6193716;28;20337;-73
2021/11/07 04:16:25;;;;;;;14.48;4.88;;;10.80;56.10;;;;;;6197287;28;20019;-73
2021/11/07 04:19:26;;;;;;;9.27;4.72;;;10.80;56.10;;;;;;6199052;28;20034;-72
2021/11/07 04:22:29;;;;;;;8.65;4.55;;;10.80;56.10;;;;;;6197293;28;20080;-73
2021/11/07 04:25:30;;;;;;;10.43;4.90;;;10.80;56.10;;;;;;6197999;28;20037;-75
2021/11/07 04:28:31;;;;;;;11.13;5.35;;;10.80;56.10;;;;;;6179845;28;20456;-73
2021/11/07 04:31:33;;;;;;;10.30;4.97;;;10.70;56.10;;;;;;6195844;28;20030;-73
2021/11/07 04:34:34;;;;;;;10.27;5.65;;;10.70;56.00;;;;;;6197320;28;20022;-75
2021/11/07 04:37:38;;;;;;;10.75;5.00;;;10.70;56.10;;;;;;6197927;28;20034;-73
2021/11/07 04:40:40;;;;;;;12.25;5.07;;;10.70;56.10;;;;;;6196747;28;20427;-73
2021/11/07 04:43:41;;;;;;;10.75;5.03;;;10.70;56.30;;;;;;6197390;28;20018;-73
2021/11/07 04:46:41;;;;;;;9.35;5.32;;;10.70;56.50;;;;;;6197529;28;20159;-73
2021/11/07 04:49:42;;;;;;;8.27;4.25;;;10.70;56.60;;;;;;6197174;28;20072;-73
2021/11/07 04:52:44;;;;;;;10.02;4.35;;;10.60;56.50;;;;;;6198043;28;20087;-73
2021/11/07 04:55:45;;;;;;;13.25;5.60;;;10.70;56.50;;;;;;6198438;28;20367;-73
2021/11/07 04:58:46;;;;;;;8.30;4.45;;;10.60;56.00;;;;;;6196145;28;20037;-73
2021/11/07 05:01:48;;;;;;;9.98;5.05;;;10.60;56.00;;;;;;6197423;28;20359;-73
2021/11/07 05:04:53;;;;;;;11.73;4.93;;;10.60;56.00;;;;;;6196901;28;20061;-73
2021/11/07 05:07:56;;;;;;;11.02;5.55;;;10.50;55.90;;;;;;6197221;28;20033;-73
2021/11/07 05:10:58;;;;;;;11.98;5.75;;;10.50;56.00;;;;;;6198548;28;20102;-74
2021/11/07 05:13:59;;;;;;;12.55;4.93;;;10.40;56.10;;;;;;6181962;28;20053;-74
2021/11/07 05:17:00;;;;;;;12.63;5.32;;;10.40;56.20;;;;;;6196646;28;20019;-73
2021/11/07 05:20:01;;;;;;;8.68;4.40;;;10.30;56.20;;;;;;6197097;28;20026;-75
2021/11/07 05:23:02;;;;;;;10.25;5.32;;;10.30;56.40;;;;;;6195795;28;20064;-73
2021/11/07 05:26:04;;;;;;;11.07;5.55;;;10.30;56.50;;;;;;6180207;28;20081;-73
2021/11/07 05:29:05;;;;;;;9.52;5.10;;;10.30;56.60;;;;;;6196450;28;20451;-72
2021/11/07 05:32:08;;;;;;;16.08;6.65;;;10.20;56.60;;;;;;6180665;28;20038;-73
2021/11/07 05:35:09;;;;;;;11.73;5.32;;;10.20;56.70;;;;;;6192602;28;20041;-73
2021/11/07 05:38:11;;;;;;;12.05;5.88;;;10.20;56.80;;;;;;6203178;28;20022;-73
2021/11/07 05:41:12;;;;;;;13.13;6.43;;;10.20;56.90;;;;;;6203096;28;20432;-75
2021/11/07 05:44:13;;;;;;;16.27;6.70;;;10.20;57.10;;;;;;6199516;28;20026;-73
2021/11/07 05:47:14;;;;;;;11.73;5.80;;;10.10;57.10;;;;;;6200068;28;20034;-73
2021/11/07 05:50:16;;;;;;;12.90;5.78;;;10.10;57.20;;;;;;6202690;28;20107;-73
2021/11/07 05:53:17;;;;;;;10.70;5.68;;;10.20;57.30;;;;;;6201817;28;20057;-73
2021/11/07 05:56:18;;;;;;;14.25;6.63;;;10.20;57.20;;;;;;6203614;28;20034;-72
2021/11/07 05:59:19;;;;;;;15.02;6.30;;;10.20;57.30;;;;;;6200412;28;20061;-73
2021/11/07 06:02:20;;;;;;;19.75;7.25;;;10.20;57.30;;;;;;6202449;28;20019;-73
2021/11/07 06:05:21;;;;;;;15.48;6.85;;;10.20;57.40;;;;;;6200388;28;20034;-74
2021/11/07 06:08:22;;;;;;;13.63;6.18;;;10.20;57.50;;;;;;6202373;28;20101;-75
2021/11/07 06:11:23;;;;;;;14.10;7.00;;;10.20;57.50;;;;;;6202334;28;20033;-73
2021/11/07 06:14:24;;;;;;;14.07;6.30;;;10.20;57.50;;;;;;6202355;28;20109;-73
2021/11/07 06:17:25;;;;;;;11.55;6.18;;;10.20;57.60;;;;;;6198637;28;20033;-73
2021/11/07 06:20:26;;;;;;;17.80;7.10;;;10.10;57.70;;;;;;6199080;28;20022;-73
2021/11/07 06:23:27;;;;;;;12.90;6.75;;;10.10;57.80;;;;;;6204331;28;20022;-72
2021/11/07 06:26:28;;;;;;;13.52;7.53;;;10.10;57.90;;;;;;6201828;28;20030;-75
2021/11/07 06:29:29;;;;;;;14.60;7.10;;;10.00;58.00;;;;;;6202612;28;20121;-74
2021/11/07 06:32:30;;;;;;;15.60;7.53;;;10.00;58.00;;;;;;6201987;28;20026;-74
2021/11/07 06:35:31;;;;;;;15.75;7.50;;;10.00;58.10;;;;;;6198943;28;20460;-74
2021/11/07 06:38:32;;;;;;;19.88;8.30;;;10.00;58.10;;;;;;6196777;28;20030;-73
2021/11/07 06:41:33;;;;;;;18.27;7.78;;;10.00;58.20;;;;;;6211892;28;20046;-74
2021/11/07 06:44:34;;;;;;;18.85;8.70;;;9.90;58.30;;;;;;6199336;28;20100;-73
2021/11/07 06:47:35;;;;;;;20.25;9.18;;;9.80;58.50;;;;;;6196386;28;20038;-73
2021/11/07 06:50:36;;;;;;;18.38;8.38;;;9.80;58.70;;;;;;6213380;28;20455;-74
2021/11/07 06:53:37;;;;;;;17.52;8.70;;;9.70;58.80;;;;;;6198333;28;20408;-73
2021/11/07 06:56:39;;;;;;;16.85;7.57;;;9.70;59.00;;;;;;6194854;28;20034;-73
2021/11/07 06:59:40;;;;;;;19.75;8.90;;;9.70;59.10;;;;;;6200022;28;20104;-73
2021/11/07 07:02:42;;;;;;;17.63;8.15;;;9.60;59.20;;;;;;6199460;28;20034;-73
2021/11/07 07:05:43;;;;;;;17.60;7.00;;;9.60;59.20;;;;;;6200195;28;20375;-74
2021/11/07 07:08:57;;;;;;;20.58;8.25;;;9.70;59.30;;;;;;6200792;28;20026;-74
2021/11/07 07:12:11;;;;;;;15.98;6.90;;;9.70;59.30;;;;;;6212701;28;20463;-73
2021/11/07 07:15:22;;;;;;;18.95;8.70;;;9.80;59.30;;;;;;6198598;28;20033;-73
2021/11/07 07:18:36;;;;;;;20.02;8.85;;;9.80;59.10;;;;;;6196404;28;20448;-72
2021/11/07 07:28:34;;;;;;;18.35;8.27;;;10.10;58.90;;;;;;6170487;28;20350;-72
2021/11/07 07:34:54;;;;;;;17.58;7.65;;;10.10;58.80;;;;;;6151453;28;20468;-71
2021/11/07 07:37:56;;;;;;;19.38;8.63;;;10.10;58.80;;;;;;6168940;28;20154;-72
2021/11/07 07:40:57;;;;;;;18.55;8.40;;;10.00;58.80;;;;;;6164819;28;20130;-72
2021/11/07 07:44:03;;;;;;;15.77;8.13;;;10.10;58.80;;;;;;6153643;28;20031;-73
2021/11/07 07:47:04;;;;;;;15.15;7.95;;;10.10;58.90;;;;;;6169820;28;20062;-72
2021/11/07 07:50:06;;;;;;;20.75;7.97;;;10.20;58.80;;;;;;6169466;28;20058;-73
2021/11/07 07:53:07;;;;;;;20.95;8.43;;;10.30;58.70;;;;;;6167381;28;20026;-72
2021/11/07 07:56:09;;;;;;;17.13;7.80;;;10.40;58.50;;;;;;6169255;28;20495;-72
2021/11/07 07:59:10;;;;;;;14.68;6.97;;;10.50;58.20;;;;;;6168373;28;20027;-72
2021/11/07 08:02:11;;;;;;;15.88;8.50;;;10.70;58.10;;;;;;6195698;28;20046;-73
2021/11/07 08:05:14;;;;;;;21.15;9.38;;;10.80;57.80;;;;;;6196596;28;20041;-73
2021/11/07 08:08:14;;;;;;;23.25;9.45;;;10.90;57.20;;;;;;6192622;28;20026;-72
2021/11/07 08:11:16;;;;;;;17.27;8.15;;;11.00;56.90;;;;;;6178671;28;20033;-69
2021/11/07 08:14:35;;;;;;;16.73;7.80;;;11.10;56.70;;;;;;6193192;28;20054;-72
2021/11/07 08:17:36;;;;;;;17.92;7.40;;;11.10;56.40;;;;;;6193175;28;20031;-73
2021/11/07 08:20:38;;;;;;;16.33;7.20;;;11.10;56.20;;;;;;6194947;28;20049;-72
2021/11/07 08:23:39;;;;;;;15.48;7.40;;;11.10;56.00;;;;;;6198203;28;20034;-72
2021/11/07 08:26:42;;;;;;;16.73;7.35;;;11.00;55.90;;;;;;6195992;28;20041;-73
2021/11/07 08:29:46;;;;;;;15.60;6.85;;;11.10;55.90;;;;;;6195049;28;20087;-73
2021/11/07 08:32:47;;;;;;;12.73;6.43;;;11.10;55.80;;;;;;6194154;28;20049;-73
2021/11/07 08:35:49;;;;;;;19.63;7.43;;;11.10;55.50;;;;;;6197531;28;20136;-72
2021/11/07 08:38:59;;;;;;;32.15;8.00;;;11.20;55.40;;;;;;6195179;28;20033;-73
2021/11/07 08:42:50;;;;;;;15.00;6.70;;;11.20;55.20;;;;;;6197073;28;20034;-74
2021/11/07 09:08:53;;;;;;;12.60;6.13;;;11.80;53.90;;;;;;6198245;28;20121;-73
2021/11/07 09:11:55;;;;;;;16.38;7.57;;;11.80;53.70;;;;;;6196645;28;20402;-72
2021/11/07 09:14:57;;;;;;;14.38;6.78;;;11.80;53.60;;;;;;6177778;28;20360;-72
2021/11/07 09:17:59;;;;;;;15.90;8.07;;;11.90;53.70;;;;;;6195342;28;20098;-72
2021/11/07 09:21:25;;;;;;;13.90;7.35;;;12.00;53.70;;;;;;6195612;28;20121;-72
2021/11/07 09:25:05;;;;;;;12.95;6.07;;;12.20;53.40;;;;;;6196510;28;20531;-73
2021/11/07 09:28:35;;;;;;;15.73;6.82;;;12.30;53.00;;;;;;6196004;28;20038;-72
2021/11/07 09:39:18;;;;;;;16.17;7.47;;;12.50;52.70;;;;;;6197340;28;20046;-74
2021/11/07 09:48:46;;;;;;;18.27;7.00;;;12.40;52.20;;;;;;6197086;28;20359;-74
2021/11/07 09:51:55;;;;;;;18.75;7.30;;;12.40;52.50;;;;;;6197651;28;20073;-73
2021/11/07 09:55:01;;;;;;;15.52;7.35;;;12.50;52.20;;;;;;6196922;28;20045;-75
2021/11/07 09:58:03;;;;;;;12.70;6.10;;;12.40;51.90;;;;;;6196500;28;20500;-74
2021/11/07 10:01:04;;;;;;;18.00;7.10;;;12.30;51.80;;;;;;6195835;28;20022;-74
2021/11/07 10:04:30;;;;;;;14.55;6.85;;;12.20;51.90;;;;;;6196833;28;20133;-75
2021/11/07 10:08:05;;;;;;;18.95;9.70;;;12.10;52.20;;;;;;6195978;28;20057;-74
2021/11/07 10:11:31;;;;;;;14.15;6.43;;;12.20;52.40;;;;;;6194066;28;20380;-73
2021/11/07 10:14:58;;;;;;;15.30;6.63;;;12.30;52.00;;;;;;6196058;28;20078;-74
2021/11/07 10:18:14;;;;;;;11.52;6.07;;;12.50;51.40;;;;;;6192419;28;20166;-74
2021/11/07 10:21:37;;;;;;;12.43;6.63;;;12.70;51.10;;;;;;6197872;28;20034;-74
2021/11/07 10:24:58;;;;;;;14.57;6.78;;;13.00;51.00;;;;;;6199202;28;20042;-73
2021/11/07 10:28:26;;;;;;;9.45;5.15;;;13.30;50.70;;;;;;6198338;28;21303;-73
2021/11/07 10:31:53;;;;;;;8.80;5.00;;;13.60;49.50;;;;;;6198698;28;20110;-74
2021/11/07 10:42:25;;;;;;;10.07;5.13;;;14.10;47.40;;;;;;6210281;28;20035;-73
2021/11/07 10:52:23;;;;;;;12.90;5.93;;;15.10;45.90;;;;;;6194086;28;20078;-73
2021/11/07 10:55:51;;;;;;;16.52;5.82;;;15.70;44.90;;;;;;6200890;28;20038;-73
2021/11/07 10:58:52;;;;;;;10.25;5.70;;;16.20;43.60;;;;;;6199620;28;20019;-74
2021/11/07 11:01:53;;;;;;;13.13;6.50;;;16.50;43.00;;;;;;6197517;28;20057;-73
2021/11/07 11:05:10;;;;;;;10.13;5.55;;;16.60;43.50;;;;;;6201252;28;20411;-74
2021/11/07 11:08:41;;;;;;;12.80;6.93;;;16.60;43.00;;;;;;6198179;28;20370;-74
2021/11/07 11:12:08;;;;;;;12.40;6.25;;;17.10;41.80;;;;;;6193803;28;20042;-74
2021/11/07 11:15:40;;;;;;;9.80;5.93;;;17.50;41.00;;;;;;6200654;28;20042;-73
2021/11/07 11:19:34;;;;;;;11.75;5.85;;;18.00;40.20;;;;;;6198113;28;20026;-72
2021/11/07 11:23:21;;;;;;;12.07;6.28;;;18.50;39.10;;;;;;6200749;28;20030;-74
2021/11/07 11:26:54;;;;;;;9.65;5.43;;;18.90;38.20;;;;;;6196804;28;20372;-74
2021/11/07 11:30:04;;;;;;;13.13;6.93;;;19.10;37.40;;;;;;6197630;28;20272;-72
2021/11/07 11:33:40;;;;;;;12.80;6.80;;;19.20;36.00;;;;;;6198167;28;20039;-72
2021/11/07 11:37:10;;;;;;;9.02;5.53;;;19.30;35.60;;;;;;6215472;28;20562;-73
2021/11/07 11:40:13;;;;;;;10.48;5.70;;;19.50;35.40;;;;;;6197581;28;20035;-72
2021/11/07 11:43:43;;;;;;;11.20;5.78;;;19.80;35.40;;;;;;6198807;28;20022;-73
2021/11/07 11:47:10;;;;;;;11.98;6.35;;;19.90;34.80;;;;;;6180812;28;20085;-73
2021/11/07 11:57:18;;;;;;;11.85;6.05;;;18.80;35.90;;;;;;6198039;28;20463;-72
2021/11/07 12:00:32;;;;;;;11.48;5.70;;;18.30;37.20;;;;;;6198407;28;20049;-75
2021/11/07 12:04:09;;;;;;;18.55;5.78;;;17.90;37.20;;;;;;6196697;28;20089;-74
2021/11/07 12:07:21;;;;;;;8.52;5.05;;;17.40;37.60;;;;;;6196710;28;20105;-75
2021/11/07 12:14:09;;;;;;;9.57;5.35;;;16.70;38.80;;;;;;6195054;28;20065;-72
2021/11/07 12:17:12;;;;;;;8.70;5.13;;;16.40;38.80;;;;;;6195236;28;20038;-75
2021/11/07 12:20:30;;;;;;;12.68;5.80;;;16.00;39.20;;;;;;6193505;28;20312;-75
2021/11/07 12:24:08;;;;;;;10.30;5.88;;;15.60;39.80;;;;;;6194568;28;20455;-74
2021/11/07 12:27:46;;;;;;;9.20;5.82;;;15.30;40.40;;;;;;6193757;28;20033;-73
2021/11/07 12:31:04;;;;;;;10.02;5.70;;;15.20;40.80;;;;;;6208436;28;20077;-75
2021/11/07 12:34:11;;;;;;;10.23;5.10;;;15.00;41.20;;;;;;6195965;28;20338;-74
2021/11/07 12:41:01;;;;;;;8.98;5.30;;;14.90;41.50;;;;;;6197899;28;20047;-72
2021/11/07 12:44:05;;;;;;;8.20;5.05;;;14.70;41.80;;;;;;6196860;28;20052;-73
2021/11/07 12:47:49;;;;;;;9.82;5.10;;;14.70;42.10;;;;;;6195519;28;20073;-73
2021/11/07 12:50:56;;;;;;;9.48;5.05;;;14.60;42.40;;;;;;6194663;28;20427;-74
2021/11/07 12:54:32;;;;;;;10.95;5.50;;;14.60;42.70;;;;;;6212100;28;20030;-73
2021/11/07 12:57:52;;;;;;;10.57;5.25;;;14.40;42.80;;;;;;6197851;28;20035;-72
2021/11/07 13:00:53;;;;;;;9.15;5.07;;;14.40;43.00;;;;;;6178537;28;20061;-73
2021/11/07 13:04:01;;;;;;;11.60;6.55;;;14.40;43.20;;;;;;6197017;28;20038;-73
2021/11/07 13:07:31;;;;;;;7.88;4.07;;;14.40;43.40;;;;;;6193905;28;20034;-72
2021/11/07 13:11:10;;;;;;;10.60;5.38;;;14.50;43.50;;;;;;6198363;28;20467;-78
2021/11/07 13:14:56;;;;;;;11.97;5.53;;;14.50;43.50;;;;;;6198180;28;20444;-74
2021/11/07 13:28:46;;;;;;;11.18;5.63;;;14.40;44.30;;;;;;6195610;28;20070;-75
2021/11/07 13:35:31;;;;;;;14.68;5.28;;;14.40;44.70;;;;;;6196310;28;20468;-76
2021/11/07 13:39:00;;;;;;;10.38;5.13;;;14.40;44.70;;;;;;6190812;28;20435;-75
2021/11/07 13:42:15;;;;;;;14.10;6.50;;;14.50;44.80;;;;;;6194112;28;20369;-76
2021/11/07 13:45:32;;;;;;;11.25;5.85;;;14.50;44.90;;;;;;6196776;28;20026;-75
2021/11/07 13:48:34;;;;;;;12.13;5.28;;;14.50;45.10;;;;;;6210877;28;20030;-75
2021/11/07 13:52:04;;;;;;;11.85;5.38;;;14.50;45.10;;;;;;6193016;28;20120;-70
2021/11/07 13:55:27;;;;;;;9.77;5.00;;;14.50;45.20;;;;;;6193260;28;20364;-76
2021/11/07 13:58:47;;;;;;;9.60;4.80;;;14.50;45.30;;;;;;6199050;28;20089;-76
2021/11/07 14:01:48;;;;;;;9.95;5.18;;;14.40;45.40;;;;;;6198915;28;20019;-75
2021/11/07 14:04:55;;;;;;;12.30;5.75;;;14.30;45.50;;;;;;6200096;28;20041;-75
2021/11/07 14:08:06;;;;;;;9.60;5.40;;;14.30;45.70;;;;;;6194488;28;20068;-76
2021/11/07 14:11:28;;;;;;;9.02;4.35;;;14.30;45.80;;;;;;6199740;28;20072;-75
2021/11/07 14:15:12;;;;;;;11.05;5.43;;;14.40;45.80;;;;;;6198745;28;20042;-76
2021/11/07 14:18:32;;;;;;;9.95;4.78;;;14.40;45.90;;;;;;6195836;28;20042;-76
2021/11/07 14:21:52;;;;;;;8.13;4.00;;;14.40;46.10;;;;;;6196470;28;20054;-75
2021/11/07 14:25:05;;;;;;;11.25;5.03;;;14.40;46.20;;;;;;6195563;28;20463;-76
2021/11/07 14:28:28;;;;;;;11.02;5.28;;;14.30;46.40;;;;;;6192990;28;20042;-76
2021/11/07 14:35:27;;;;;;;7.75;4.63;;;14.30;46.60;;;;;;6195501;28;20085;-75
2021/11/07 14:38:36;;;;;;;9.57;4.78;;;14.20;46.70;;;;;;6198767;28;20367;-75
2021/11/07 14:52:08;;;;;;;9.18;4.32;;;14.10;47.20;;;;;;6200015;28;20341;-75
2021/11/07 14:55:35;;;;;;;6.80;3.90;;;14.10;47.40;;;;;;6199948;28;20042;-75
2021/11/07 14:59:16;;;;;;;8.27;3.75;;;14.00;47.30;;;;;;6201461;28;20031;-74
2021/11/07 15:02:53;;;;;;;7.65;3.75;;;14.00;47.30;;;;;;6196879;28;20043;-75
2021/11/07 15:06:26;;;;;;;9.77;3.67;;;13.90;47.50;;;;;;6198987;28;20197;-73
2021/11/07 15:10:16;;;;;;;5.43;3.08;;;13.80;47.50;;;;;;6199316;28;20038;-74
2021/11/07 15:13:54;;;;;;;5.73;3.40;;;13.70;47.60;;;;;;6198978;28;20046;-74
2021/11/07 15:17:06;;;;;;;5.85;2.75;;;13.70;47.60;;;;;;6198473;28;20773;-75
2021/11/07 15:20:36;;;;;;;9.23;3.83;;;13.70;47.70;;;;;;6196917;28;20376;-75
2021/11/07 15:24:03;;;;;;;7.40;3.45;;;13.60;47.80;;;;;;6197287;28;20034;-75
2021/11/07 15:27:26;;;;;;;6.75;3.22;;;13.60;48.00;;;;;;6199039;28;20376;-75
2021/11/07 15:30:46;;;;;;;6.90;3.50;;;13.50;48.60;;;;;;6198736;28;20415;-76
2021/11/07 15:33:47;;;;;;;6.20;3.13;;;13.50;48.10;;;;;;6196845;28;20096;-76
2021/11/07 15:36:48;;;;;;;7.15;3.00;;;13.50;48.10;;;;;;6197017;28;20060;-75
2021/11/07 15:39:52;;;;;;;5.05;2.75;;;13.50;48.20;;;;;;6189776;28;20507;-74
2021/11/07 15:42:53;;;;;;;6.72;3.58;;;13.50;48.20;;;;;;6194500;28;20042;-73
2021/11/07 15:48:58;;;;;;;6.03;2.70;;;13.40;48.30;;;;;;6199477;28;20022;-74
2021/11/07 15:56:11;;;;;;;4.25;2.28;;;13.40;48.50;;;;;;6167003;28;20457;-74
2021/11/07 16:10:02;;;;;;;7.53;2.90;;;13.20;48.90;;;;;;6154481;28;20074;-75
2021/11/07 16:15:10;;;;;;;5.70;3.15;;;13.20;49.00;;;;;;6157008;28;20034;-76
2021/11/07 16:17:20;;;;;;;6.15;2.92;;;13.10;49.10;;;;;;6154974;28;20051;-74
2021/11/07 16:20:22;;;;;;;5.70;2.60;;;13.10;49.30;;;;;;6167196;28;20050;-73
2021/11/07 16:23:24;;;;;;;4.68;2.83;;;13.00;49.30;;;;;;6167903;28;20450;-74
2021/11/07 16:26:25;;;;;;;4.15;2.53;;;13.00;49.40;;;;;;6137135;28;20045;-76
2021/11/07 16:29:28;;;;;;;3.22;2.17;;;13.00;49.50;;;;;;6139254;28;20189;-74
2021/11/07 16:32:44;;;;;;;6.90;2.85;;;12.90;49.60;;;;;;6174280;28;20479;-74
2021/11/07 16:36:04;;;;;;;5.72;2.78;;;12.90;49.70;;;;;;6193147;28;20641;-75
2021/11/07 16:39:26;;;;;;;4.75;2.42;;;12.90;49.80;;;;;;6195419;28;20061;-74
2021/11/07 16:42:28;;;;;;;5.35;2.30;;;12.90;49.90;;;;;;6193918;28;20046;-75
2021/11/07 16:45:30;;;;;;;6.65;2.83;;;12.90;50.00;;;;;;6196512;28;20042;-75
2021/11/07 16:48:32;;;;;;;4.18;2.33;;;12.90;50.70;;;;;;6196692;28;20076;-76
2021/11/07 16:51:36;;;;;;;4.22;2.33;;;12.90;50.10;;;;;;6206814;28;20031;-76
2021/11/07 16:54:41;;;;;;;7.53;2.80;;;12.90;50.20;;;;;;6195838;28;20725;-74
2021/11/07 16:57:44;;;;;;;6.85;2.83;;;12.90;50.30;;;;;;6194864;28;20025;-75
2021/11/07 17:00:49;;;;;;;4.18;2.20;;;12.90;50.30;;;;;;6197028;28;20105;-75
2021/11/07 17:03:56;;;;;;;4.50;2.70;;;12.90;50.40;;;;;;6195217;28;20471;-75
2021/11/07 17:07:00;;;;;;;4.43;2.47;;;12.90;50.50;;;;;;6193965;28;20054;-76
2021/11/07 17:10:04;;;;;;;4.05;2.55;;;12.90;50.50;;;;;;6195800;28;20364;-75
2021/11/07 17:13:09;;;;;;;7.32;2.90;;;12.90;50.60;;;;;;6196277;28;20030;-76
2021/11/07 17:16:21;;;;;;;5.40;2.80;;;12.90;50.60;;;;;;6198597;28;20033;-75
2021/11/07 17:19:29;;;;;;;5.88;2.85;;;12.90;50.60;;;;;;6195846;28;20048;-76
2021/11/07 17:26:11;;;;;;;4.88;3.05;;;12.80;50.60;;;;;;6167566;28;20046;-76
2021/11/07 17:29:14;;;;;;;10.70;4.00;;;12.80;50.60;;;;;;6152171;28;20039;-75
2021/11/07 17:32:41;;;;;;;10.73;4.07;;;12.80;50.60;;;;;;6171191;28;20097;-76
2021/11/07 17:48:56;;;;;;;12.68;5.78;;;12.70;50.70;;;;;;6128078;29;20043;-80
2021/11/07 17:55:25;;;;;;;18.48;6.03;;;12.60;51.10;;;;;;6082053;29;20044;-73
2021/11/07 17:58:27;;;;;;;18.45;7.10;;;12.40;51.10;;;;;;6063663;29;20025;-74
2021/11/07 18:01:28;;;;;;;10.45;5.35;;;12.40;51.20;;;;;;6093925;29;20103;-74
2021/11/07 18:04:30;;;;;;;10.50;5.22;;;12.40;51.30;;;;;;6103147;29;20044;-74
2021/11/07 18:07:36;;;;;;;16.30;6.63;;;12.30;51.30;;;;;;6094100;29;20047;-77
2021/11/07 18:10:44;;;;;;;14.02;6.90;;;12.30;51.30;;;;;;6096453;29;20039;-74
2021/11/07 18:13:45;;;;;;;17.33;8.40;;;12.30;51.50;;;;;;6075146;29;20458;-76
2021/11/07 18:16:50;;;;;;;23.88;11.10;;;12.30;51.60;;;;;;6132570;28;20043;-74
2021/11/07 18:19:54;;;;;;;23.48;8.82;;;12.30;51.80;;;;;;6142741;28;20556;-74
2021/11/07 18:23:05;;;;;;;19.35;8.20;;;12.30;52.00;;;;;;6141808;28;20043;-74
2021/11/07 18:26:08;;;;;;;15.52;7.53;;;12.20;52.00;;;;;;6122902;28;20365;-73
2021/11/07 18:29:09;;;;;;;17.75;7.28;;;12.20;52.10;;;;;;6159425;28;20041;-71
2021/11/07 18:32:10;;;;;;;21.25;9.35;;;12.20;52.20;;;;;;6188152;28;20122;-74
2021/11/07 18:35:12;;;;;;;21.80;9.88;;;12.10;52.30;;;;;;6175866;28;20038;-75
2021/11/07 18:38:21;;;;;;;20.73;8.13;;;12.10;52.40;;;;;;6200657;28;20431;-75
2021/11/07 18:41:23;;;;;;;21.38;8.13;;;12.10;52.40;;;;;;6199074;28;20062;-75
2021/11/07 18:44:24;;;;;;;16.38;7.57;;;12.10;52.40;;;;;;6200827;28;20471;-76
2021/11/07 18:47:26;;;;;;;28.73;9.13;;;12.00;52.40;;;;;;6197148;28;20054;-74
2021/11/07 18:50:27;;;;;;;16.60;8.30;;;12.00;52.40;;;;;;6197996;28;20181;-75
2021/11/07 18:53:28;;;;;;;19.02;8.40;;;12.00;53.10;;;;;;6202026;28;20038;-75
2021/11/07 18:56:30;;;;;;;16.42;8.65;;;12.00;52.60;;;;;;6200587;28;20062;-74
2021/11/07 18:59:31;;;;;;;15.02;7.07;;;12.00;52.60;;;;;;6199818;28;20033;-74
2021/11/07 19:02:32;;;;;;;13.32;5.75;;;12.00;52.70;;;;;;6198802;28;20022;-74
2021/11/07 19:05:35;;;;;;;16.13;6.65;;;11.90;53.30;;;;;;6199172;28;20046;-75
2021/11/07 19:08:36;;;;;;;16.95;6.78;;;11.90;52.90;;;;;;6184939;28;20407;-75
2021/11/07 19:11:37;;;;;;;14.13;5.97;;;11.80;53.10;;;;;;6183860;28;20034;-75
2021/11/07 19:14:39;;;;;;;15.23;6.72;;;11.80;53.20;;;;;;6200406;28;20018;-77